<?xml version="1.0" encoding="UTF-8" standalone="no" ?>
<gpx xmlns="http://www.topografix.com/GPX/1/1" xmlns:xsi="http://www.w3.org/2001/XMLSchema-instance" xsi:schemaLocation="http://www.topografix.com/GPX/1/1 http://www.topografix.com/GPX/1/1/gpx.xsd" version="1.1" creator="VisuGPX - https://www.visugpx.com">
  <metadata>
    <name>07 - Saint-Félicien circuits en partant de l'Etape cavalière du Balayn </name>
    <desc><![CDATA[Ces itinéraires font partie de la collection de EquiLiberté : www.equiliberte.org Ils sont proposés par 07410 L'Étape Cavalière du Balayn à St Félicien. http://etapecavalieredubalayn.fr/index.php/contact-reservation/ Circuits NON ACCESSIBLE aux attelages ]]></desc>
  </metadata>
  <trk>
    <name><![CDATA[07 - St Félicien : Balade de Montplot]]></name>
    <trkseg>
      <trkpt lat="45.09414" lon="4.65216">
        <ele>618</ele>
        <time>2020-07-15T18:54:51 02:00</time>
      </trkpt>
      <trkpt lat="45.09444" lon="4.65235">
        <ele>613</ele>
        <time>2020-07-15T18:54:56 02:00</time>
      </trkpt>
      <trkpt lat="45.09475" lon="4.65181">
        <ele>611</ele>
        <time>2020-07-15T18:55:01 02:00</time>
      </trkpt>
      <trkpt lat="45.09507" lon="4.65126">
        <ele>612</ele>
        <time>2020-07-15T18:55:06 02:00</time>
      </trkpt>
      <trkpt lat="45.0956" lon="4.65076">
        <ele>610</ele>
        <time>2020-07-15T18:55:11 02:00</time>
      </trkpt>
      <trkpt lat="45.09588" lon="4.6504">
        <ele>611</ele>
        <time>2020-07-15T18:55:16 02:00</time>
      </trkpt>
      <trkpt lat="45.09629" lon="4.6493">
        <ele>615</ele>
        <time>2020-07-15T18:55:21 02:00</time>
      </trkpt>
      <trkpt lat="45.09649" lon="4.64905">
        <ele>615</ele>
        <time>2020-07-15T18:55:26 02:00</time>
      </trkpt>
      <trkpt lat="45.09593" lon="4.64855">
        <ele>621</ele>
        <time>2020-07-15T18:55:31 02:00</time>
      </trkpt>
      <trkpt lat="45.09576" lon="4.64834">
        <ele>623</ele>
        <time>2020-07-15T18:55:36 02:00</time>
      </trkpt>
      <trkpt lat="45.09573" lon="4.64774">
        <ele>624</ele>
        <time>2020-07-15T18:55:41 02:00</time>
      </trkpt>
      <trkpt lat="45.09572" lon="4.64724">
        <ele>625</ele>
        <time>2020-07-15T18:55:46 02:00</time>
      </trkpt>
      <trkpt lat="45.09561" lon="4.64686">
        <ele>625</ele>
        <time>2020-07-15T18:55:51 02:00</time>
      </trkpt>
      <trkpt lat="45.09549" lon="4.64647">
        <ele>624</ele>
        <time>2020-07-15T18:55:56 02:00</time>
      </trkpt>
      <trkpt lat="45.09546" lon="4.64609">
        <ele>621</ele>
        <time>2020-07-15T18:56:01 02:00</time>
      </trkpt>
      <trkpt lat="45.09604" lon="4.64589">
        <ele>614</ele>
        <time>2020-07-15T18:56:06 02:00</time>
      </trkpt>
      <trkpt lat="45.09666" lon="4.64617">
        <ele>616</ele>
        <time>2020-07-15T18:56:11 02:00</time>
      </trkpt>
      <trkpt lat="45.09703" lon="4.64609">
        <ele>622</ele>
        <time>2020-07-15T18:56:16 02:00</time>
      </trkpt>
      <trkpt lat="45.09747" lon="4.64729">
        <ele>622</ele>
        <time>2020-07-15T18:56:21 02:00</time>
      </trkpt>
      <trkpt lat="45.09802" lon="4.648">
        <ele>626</ele>
        <time>2020-07-15T18:56:26 02:00</time>
      </trkpt>
      <trkpt lat="45.0984" lon="4.64825">
        <ele>629</ele>
        <time>2020-07-15T18:56:31 02:00</time>
      </trkpt>
      <trkpt lat="45.09872" lon="4.64875">
        <ele>637</ele>
        <time>2020-07-15T18:56:36 02:00</time>
      </trkpt>
      <trkpt lat="45.09875" lon="4.64928">
        <ele>638</ele>
        <time>2020-07-15T18:56:41 02:00</time>
      </trkpt>
      <trkpt lat="45.09888" lon="4.64903">
        <ele>641</ele>
        <time>2020-07-15T18:56:46 02:00</time>
      </trkpt>
      <trkpt lat="45.099" lon="4.64939">
        <ele>643</ele>
        <time>2020-07-15T18:56:51 02:00</time>
      </trkpt>
      <trkpt lat="45.09914" lon="4.64898">
        <ele>646</ele>
        <time>2020-07-15T18:56:56 02:00</time>
      </trkpt>
      <trkpt lat="45.09976" lon="4.64926">
        <ele>653</ele>
        <time>2020-07-15T18:57:01 02:00</time>
      </trkpt>
      <trkpt lat="45.10025" lon="4.64945">
        <ele>656</ele>
        <time>2020-07-15T18:57:06 02:00</time>
      </trkpt>
      <trkpt lat="45.10094" lon="4.64918">
        <ele>663</ele>
        <time>2020-07-15T18:57:11 02:00</time>
      </trkpt>
      <trkpt lat="45.10125" lon="4.64903">
        <ele>666</ele>
        <time>2020-07-15T18:57:16 02:00</time>
      </trkpt>
      <trkpt lat="45.10194" lon="4.64797">
        <ele>674</ele>
        <time>2020-07-15T18:57:21 02:00</time>
      </trkpt>
      <trkpt lat="45.10268" lon="4.64703">
        <ele>672</ele>
        <time>2020-07-15T18:57:26 02:00</time>
      </trkpt>
      <trkpt lat="45.10314" lon="4.64645">
        <ele>671</ele>
        <time>2020-07-15T18:57:31 02:00</time>
      </trkpt>
      <trkpt lat="45.10333" lon="4.64615">
        <ele>672</ele>
        <time>2020-07-15T18:57:36 02:00</time>
      </trkpt>
      <trkpt lat="45.10293" lon="4.64612">
        <ele>687</ele>
        <time>2020-07-15T18:57:41 02:00</time>
      </trkpt>
      <trkpt lat="45.10257" lon="4.64639">
        <ele>692</ele>
        <time>2020-07-15T18:57:46 02:00</time>
      </trkpt>
      <trkpt lat="45.10242" lon="4.64644">
        <ele>695</ele>
        <time>2020-07-15T18:57:51 02:00</time>
      </trkpt>
      <trkpt lat="45.10231" lon="4.64672">
        <ele>691</ele>
        <time>2020-07-15T18:57:56 02:00</time>
      </trkpt>
      <trkpt lat="45.10246" lon="4.64613">
        <ele>703</ele>
        <time>2020-07-15T18:58:01 02:00</time>
      </trkpt>
      <trkpt lat="45.10278" lon="4.64555">
        <ele>706</ele>
        <time>2020-07-15T18:58:06 02:00</time>
      </trkpt>
      <trkpt lat="45.10314" lon="4.64476">
        <ele>710</ele>
        <time>2020-07-15T18:58:11 02:00</time>
      </trkpt>
      <trkpt lat="45.10328" lon="4.64436">
        <ele>714</ele>
        <time>2020-07-15T18:58:16 02:00</time>
      </trkpt>
      <trkpt lat="45.10345" lon="4.64364">
        <ele>720</ele>
        <time>2020-07-15T18:58:21 02:00</time>
      </trkpt>
      <trkpt lat="45.10361" lon="4.64295">
        <ele>729</ele>
        <time>2020-07-15T18:58:26 02:00</time>
      </trkpt>
      <trkpt lat="45.10384" lon="4.64259">
        <ele>731</ele>
        <time>2020-07-15T18:58:31 02:00</time>
      </trkpt>
      <trkpt lat="45.10442" lon="4.64219">
        <ele>734</ele>
        <time>2020-07-15T18:58:36 02:00</time>
      </trkpt>
      <trkpt lat="45.10509" lon="4.64233">
        <ele>727</ele>
        <time>2020-07-15T18:58:41 02:00</time>
      </trkpt>
      <trkpt lat="45.10565" lon="4.64215">
        <ele>735</ele>
        <time>2020-07-15T18:58:46 02:00</time>
      </trkpt>
      <trkpt lat="45.106" lon="4.64188">
        <ele>744</ele>
        <time>2020-07-15T18:58:51 02:00</time>
      </trkpt>
      <trkpt lat="45.1063" lon="4.64147">
        <ele>755</ele>
        <time>2020-07-15T18:58:56 02:00</time>
      </trkpt>
      <trkpt lat="45.10667" lon="4.64121">
        <ele>760</ele>
        <time>2020-07-15T18:59:01 02:00</time>
      </trkpt>
      <trkpt lat="45.10712" lon="4.64132">
        <ele>768</ele>
        <time>2020-07-15T18:59:06 02:00</time>
      </trkpt>
      <trkpt lat="45.10735" lon="4.64154">
        <ele>770</ele>
        <time>2020-07-15T18:59:11 02:00</time>
      </trkpt>
      <trkpt lat="45.10771" lon="4.64136">
        <ele>785</ele>
        <time>2020-07-15T18:59:16 02:00</time>
      </trkpt>
      <trkpt lat="45.10763" lon="4.64095">
        <ele>787</ele>
        <time>2020-07-15T18:59:21 02:00</time>
      </trkpt>
      <trkpt lat="45.10741" lon="4.6403">
        <ele>794</ele>
        <time>2020-07-15T18:59:26 02:00</time>
      </trkpt>
      <trkpt lat="45.10678" lon="4.64017">
        <ele>791</ele>
        <time>2020-07-15T18:59:31 02:00</time>
      </trkpt>
      <trkpt lat="45.10643" lon="4.64023">
        <ele>790</ele>
        <time>2020-07-15T18:59:36 02:00</time>
      </trkpt>
      <trkpt lat="45.10627" lon="4.64006">
        <ele>796</ele>
        <time>2020-07-15T18:59:41 02:00</time>
      </trkpt>
      <trkpt lat="45.10633" lon="4.63984">
        <ele>799</ele>
        <time>2020-07-15T18:59:46 02:00</time>
      </trkpt>
      <trkpt lat="45.1068" lon="4.63976">
        <ele>800</ele>
        <time>2020-07-15T18:59:51 02:00</time>
      </trkpt>
      <trkpt lat="45.10736" lon="4.63943">
        <ele>811</ele>
        <time>2020-07-15T18:59:56 02:00</time>
      </trkpt>
      <trkpt lat="45.10803" lon="4.63943">
        <ele>827</ele>
        <time>2020-07-15T19:00:01 02:00</time>
      </trkpt>
      <trkpt lat="45.10839" lon="4.64031">
        <ele>826</ele>
        <time>2020-07-15T19:00:06 02:00</time>
      </trkpt>
      <trkpt lat="45.10867" lon="4.64136">
        <ele>826</ele>
        <time>2020-07-15T19:00:11 02:00</time>
      </trkpt>
      <trkpt lat="45.10862" lon="4.64184">
        <ele>821</ele>
        <time>2020-07-15T19:00:16 02:00</time>
      </trkpt>
      <trkpt lat="45.10885" lon="4.64246">
        <ele>827</ele>
        <time>2020-07-15T19:00:21 02:00</time>
      </trkpt>
      <trkpt lat="45.10871" lon="4.64304">
        <ele>822</ele>
        <time>2020-07-15T19:00:26 02:00</time>
      </trkpt>
      <trkpt lat="45.10874" lon="4.64347">
        <ele>824</ele>
        <time>2020-07-15T19:00:31 02:00</time>
      </trkpt>
      <trkpt lat="45.10898" lon="4.64403">
        <ele>830</ele>
        <time>2020-07-15T19:00:36 02:00</time>
      </trkpt>
      <trkpt lat="45.10948" lon="4.64443">
        <ele>833</ele>
        <time>2020-07-15T19:00:41 02:00</time>
      </trkpt>
      <trkpt lat="45.11003" lon="4.64491">
        <ele>831</ele>
        <time>2020-07-15T19:00:46 02:00</time>
      </trkpt>
      <trkpt lat="45.11068" lon="4.64521">
        <ele>828</ele>
        <time>2020-07-15T19:00:51 02:00</time>
      </trkpt>
      <trkpt lat="45.11118" lon="4.64551">
        <ele>819</ele>
        <time>2020-07-15T19:00:56 02:00</time>
      </trkpt>
      <trkpt lat="45.11104" lon="4.64651">
        <ele>814</ele>
        <time>2020-07-15T19:01:01 02:00</time>
      </trkpt>
      <trkpt lat="45.11098" lon="4.64705">
        <ele>813</ele>
        <time>2020-07-15T19:01:06 02:00</time>
      </trkpt>
      <trkpt lat="45.11098" lon="4.64724">
        <ele>812</ele>
        <time>2020-07-15T19:01:11 02:00</time>
      </trkpt>
      <trkpt lat="45.11139" lon="4.64675">
        <ele>810</ele>
        <time>2020-07-15T19:01:16 02:00</time>
      </trkpt>
      <trkpt lat="45.11226" lon="4.64606">
        <ele>802</ele>
        <time>2020-07-15T19:01:21 02:00</time>
      </trkpt>
      <trkpt lat="45.11318" lon="4.6457">
        <ele>790</ele>
        <time>2020-07-15T19:01:26 02:00</time>
      </trkpt>
      <trkpt lat="45.1136" lon="4.64563">
        <ele>787</ele>
        <time>2020-07-15T19:01:31 02:00</time>
      </trkpt>
      <trkpt lat="45.11333" lon="4.64636">
        <ele>788</ele>
        <time>2020-07-15T19:01:36 02:00</time>
      </trkpt>
      <trkpt lat="45.11332" lon="4.64686">
        <ele>789</ele>
        <time>2020-07-15T19:01:41 02:00</time>
      </trkpt>
      <trkpt lat="45.11363" lon="4.64789">
        <ele>785</ele>
        <time>2020-07-15T19:01:46 02:00</time>
      </trkpt>
      <trkpt lat="45.11379" lon="4.64823">
        <ele>783</ele>
        <time>2020-07-15T19:01:51 02:00</time>
      </trkpt>
      <trkpt lat="45.11397" lon="4.64885">
        <ele>783</ele>
        <time>2020-07-15T19:01:56 02:00</time>
      </trkpt>
      <trkpt lat="45.11403" lon="4.64954">
        <ele>784</ele>
        <time>2020-07-15T19:02:01 02:00</time>
      </trkpt>
      <trkpt lat="45.11392" lon="4.65044">
        <ele>786</ele>
        <time>2020-07-15T19:02:06 02:00</time>
      </trkpt>
      <trkpt lat="45.11351" lon="4.65141">
        <ele>785</ele>
        <time>2020-07-15T19:02:11 02:00</time>
      </trkpt>
      <trkpt lat="45.11326" lon="4.65203">
        <ele>784</ele>
        <time>2020-07-15T19:02:16 02:00</time>
      </trkpt>
      <trkpt lat="45.11292" lon="4.65244">
        <ele>784</ele>
        <time>2020-07-15T19:02:21 02:00</time>
      </trkpt>
      <trkpt lat="45.11263" lon="4.65276">
        <ele>786</ele>
        <time>2020-07-15T19:02:26 02:00</time>
      </trkpt>
      <trkpt lat="45.11255" lon="4.65267">
        <ele>786</ele>
        <time>2020-07-15T19:02:31 02:00</time>
      </trkpt>
      <trkpt lat="45.11248" lon="4.65181">
        <ele>795</ele>
        <time>2020-07-15T19:02:36 02:00</time>
      </trkpt>
      <trkpt lat="45.11212" lon="4.65139">
        <ele>799</ele>
        <time>2020-07-15T19:02:41 02:00</time>
      </trkpt>
      <trkpt lat="45.11195" lon="4.65074">
        <ele>806</ele>
        <time>2020-07-15T19:02:46 02:00</time>
      </trkpt>
      <trkpt lat="45.1117" lon="4.65033">
        <ele>809</ele>
        <time>2020-07-15T19:02:51 02:00</time>
      </trkpt>
      <trkpt lat="45.11142" lon="4.64973">
        <ele>808</ele>
        <time>2020-07-15T19:02:56 02:00</time>
      </trkpt>
      <trkpt lat="45.11117" lon="4.64879">
        <ele>807</ele>
        <time>2020-07-15T19:03:01 02:00</time>
      </trkpt>
      <trkpt lat="45.11101" lon="4.64808">
        <ele>808</ele>
        <time>2020-07-15T19:03:06 02:00</time>
      </trkpt>
      <trkpt lat="45.11098" lon="4.64776">
        <ele>810</ele>
        <time>2020-07-15T19:03:11 02:00</time>
      </trkpt>
      <trkpt lat="45.11094" lon="4.64748">
        <ele>811</ele>
        <time>2020-07-15T19:03:16 02:00</time>
      </trkpt>
      <trkpt lat="45.11064" lon="4.64761">
        <ele>807</ele>
        <time>2020-07-15T19:03:21 02:00</time>
      </trkpt>
      <trkpt lat="45.11061" lon="4.64804">
        <ele>801</ele>
        <time>2020-07-15T19:03:26 02:00</time>
      </trkpt>
      <trkpt lat="45.11064" lon="4.64885">
        <ele>794</ele>
        <time>2020-07-15T19:03:31 02:00</time>
      </trkpt>
      <trkpt lat="45.11082" lon="4.64926">
        <ele>796</ele>
        <time>2020-07-15T19:03:36 02:00</time>
      </trkpt>
      <trkpt lat="45.11076" lon="4.6496">
        <ele>792</ele>
        <time>2020-07-15T19:03:41 02:00</time>
      </trkpt>
      <trkpt lat="45.11089" lon="4.65044">
        <ele>789</ele>
        <time>2020-07-15T19:03:46 02:00</time>
      </trkpt>
      <trkpt lat="45.11076" lon="4.65029">
        <ele>786</ele>
        <time>2020-07-15T19:03:51 02:00</time>
      </trkpt>
      <trkpt lat="45.11054" lon="4.64956">
        <ele>785</ele>
        <time>2020-07-15T19:03:56 02:00</time>
      </trkpt>
      <trkpt lat="45.11014" lon="4.64885">
        <ele>780</ele>
        <time>2020-07-15T19:04:01 02:00</time>
      </trkpt>
      <trkpt lat="45.10983" lon="4.64834">
        <ele>779</ele>
        <time>2020-07-15T19:04:06 02:00</time>
      </trkpt>
      <trkpt lat="45.10938" lon="4.64776">
        <ele>779</ele>
        <time>2020-07-15T19:04:11 02:00</time>
      </trkpt>
      <trkpt lat="45.10911" lon="4.64757">
        <ele>779</ele>
        <time>2020-07-15T19:04:16 02:00</time>
      </trkpt>
      <trkpt lat="45.10873" lon="4.64812">
        <ele>772</ele>
        <time>2020-07-15T19:04:21 02:00</time>
      </trkpt>
      <trkpt lat="45.10864" lon="4.6486">
        <ele>762</ele>
        <time>2020-07-15T19:04:26 02:00</time>
      </trkpt>
      <trkpt lat="45.10805" lon="4.64883">
        <ele>762</ele>
        <time>2020-07-15T19:04:31 02:00</time>
      </trkpt>
      <trkpt lat="45.10768" lon="4.64935">
        <ele>754</ele>
        <time>2020-07-15T19:04:36 02:00</time>
      </trkpt>
      <trkpt lat="45.10732" lon="4.65003">
        <ele>742</ele>
        <time>2020-07-15T19:04:41 02:00</time>
      </trkpt>
      <trkpt lat="45.10729" lon="4.65016">
        <ele>740</ele>
        <time>2020-07-15T19:04:46 02:00</time>
      </trkpt>
      <trkpt lat="45.10706" lon="4.65051">
        <ele>734</ele>
        <time>2020-07-15T19:04:51 02:00</time>
      </trkpt>
      <trkpt lat="45.10653" lon="4.65042">
        <ele>738</ele>
        <time>2020-07-15T19:04:56 02:00</time>
      </trkpt>
      <trkpt lat="45.106" lon="4.6501">
        <ele>738</ele>
        <time>2020-07-15T19:05:01 02:00</time>
      </trkpt>
      <trkpt lat="45.10547" lon="4.64969">
        <ele>729</ele>
        <time>2020-07-15T19:05:06 02:00</time>
      </trkpt>
      <trkpt lat="45.10529" lon="4.64937">
        <ele>726</ele>
        <time>2020-07-15T19:05:11 02:00</time>
      </trkpt>
      <trkpt lat="45.10511" lon="4.64883">
        <ele>718</ele>
        <time>2020-07-15T19:05:16 02:00</time>
      </trkpt>
      <trkpt lat="45.10518" lon="4.64797">
        <ele>714</ele>
        <time>2020-07-15T19:05:21 02:00</time>
      </trkpt>
      <trkpt lat="45.10523" lon="4.64737">
        <ele>709</ele>
        <time>2020-07-15T19:05:26 02:00</time>
      </trkpt>
      <trkpt lat="45.10538" lon="4.64669">
        <ele>705</ele>
        <time>2020-07-15T19:05:31 02:00</time>
      </trkpt>
      <trkpt lat="45.10555" lon="4.64611">
        <ele>708</ele>
        <time>2020-07-15T19:05:36 02:00</time>
      </trkpt>
      <trkpt lat="45.10549" lon="4.64538">
        <ele>700</ele>
        <time>2020-07-15T19:05:41 02:00</time>
      </trkpt>
      <trkpt lat="45.1054" lon="4.64523">
        <ele>696</ele>
        <time>2020-07-15T19:05:46 02:00</time>
      </trkpt>
      <trkpt lat="45.10529" lon="4.64542">
        <ele>693</ele>
        <time>2020-07-15T19:05:51 02:00</time>
      </trkpt>
      <trkpt lat="45.10494" lon="4.6454">
        <ele>682</ele>
        <time>2020-07-15T19:05:56 02:00</time>
      </trkpt>
      <trkpt lat="45.10455" lon="4.64488">
        <ele>681</ele>
        <time>2020-07-15T19:06:01 02:00</time>
      </trkpt>
      <trkpt lat="45.10414" lon="4.64503">
        <ele>677</ele>
        <time>2020-07-15T19:06:06 02:00</time>
      </trkpt>
      <trkpt lat="45.10368" lon="4.64576">
        <ele>675</ele>
        <time>2020-07-15T19:06:11 02:00</time>
      </trkpt>
      <trkpt lat="45.10306" lon="4.64669">
        <ele>668</ele>
        <time>2020-07-15T19:06:16 02:00</time>
      </trkpt>
      <trkpt lat="45.10275" lon="4.64701">
        <ele>671</ele>
        <time>2020-07-15T19:06:21 02:00</time>
      </trkpt>
      <trkpt lat="45.10221" lon="4.64772">
        <ele>671</ele>
        <time>2020-07-15T19:06:26 02:00</time>
      </trkpt>
      <trkpt lat="45.10158" lon="4.64849">
        <ele>673</ele>
        <time>2020-07-15T19:06:31 02:00</time>
      </trkpt>
      <trkpt lat="45.10125" lon="4.64898">
        <ele>666</ele>
        <time>2020-07-15T19:06:36 02:00</time>
      </trkpt>
      <trkpt lat="45.10091" lon="4.64918">
        <ele>663</ele>
        <time>2020-07-15T19:06:41 02:00</time>
      </trkpt>
      <trkpt lat="45.10037" lon="4.64935">
        <ele>658</ele>
        <time>2020-07-15T19:06:46 02:00</time>
      </trkpt>
      <trkpt lat="45.09994" lon="4.64928">
        <ele>655</ele>
        <time>2020-07-15T19:06:51 02:00</time>
      </trkpt>
      <trkpt lat="45.0994" lon="4.64903">
        <ele>650</ele>
        <time>2020-07-15T19:06:56 02:00</time>
      </trkpt>
      <trkpt lat="45.09916" lon="4.64898">
        <ele>646</ele>
        <time>2020-07-15T19:07:01 02:00</time>
      </trkpt>
      <trkpt lat="45.09896" lon="4.64933">
        <ele>642</ele>
        <time>2020-07-15T19:07:06 02:00</time>
      </trkpt>
      <trkpt lat="45.09888" lon="4.64907">
        <ele>641</ele>
        <time>2020-07-15T19:07:11 02:00</time>
      </trkpt>
      <trkpt lat="45.09873" lon="4.64924">
        <ele>638</ele>
        <time>2020-07-15T19:07:16 02:00</time>
      </trkpt>
      <trkpt lat="45.09866" lon="4.64857">
        <ele>635</ele>
        <time>2020-07-15T19:07:21 02:00</time>
      </trkpt>
      <trkpt lat="45.09828" lon="4.6481">
        <ele>628</ele>
        <time>2020-07-15T19:07:26 02:00</time>
      </trkpt>
      <trkpt lat="45.09787" lon="4.6478">
        <ele>625</ele>
        <time>2020-07-15T19:07:31 02:00</time>
      </trkpt>
      <trkpt lat="45.09744" lon="4.64716">
        <ele>623</ele>
        <time>2020-07-15T19:07:36 02:00</time>
      </trkpt>
      <trkpt lat="45.09705" lon="4.64619">
        <ele>622</ele>
        <time>2020-07-15T19:07:41 02:00</time>
      </trkpt>
      <trkpt lat="45.09649" lon="4.64613">
        <ele>616</ele>
        <time>2020-07-15T19:07:46 02:00</time>
      </trkpt>
      <trkpt lat="45.09605" lon="4.64589">
        <ele>614</ele>
        <time>2020-07-15T19:07:51 02:00</time>
      </trkpt>
      <trkpt lat="45.09543" lon="4.64604">
        <ele>620</ele>
        <time>2020-07-15T19:07:56 02:00</time>
      </trkpt>
      <trkpt lat="45.09472" lon="4.64553">
        <ele>623</ele>
        <time>2020-07-15T19:08:01 02:00</time>
      </trkpt>
      <trkpt lat="45.09388" lon="4.64542">
        <ele>628</ele>
        <time>2020-07-15T19:08:06 02:00</time>
      </trkpt>
      <trkpt lat="45.0934" lon="4.64542">
        <ele>631</ele>
        <time>2020-07-15T19:08:11 02:00</time>
      </trkpt>
      <trkpt lat="45.09366" lon="4.64675">
        <ele>642</ele>
        <time>2020-07-15T19:08:16 02:00</time>
      </trkpt>
      <trkpt lat="45.09379" lon="4.64772">
        <ele>644</ele>
        <time>2020-07-15T19:08:21 02:00</time>
      </trkpt>
      <trkpt lat="45.09379" lon="4.64789">
        <ele>644</ele>
        <time>2020-07-15T19:08:26 02:00</time>
      </trkpt>
      <trkpt lat="45.09376" lon="4.64969">
        <ele>637</ele>
        <time>2020-07-15T19:08:31 02:00</time>
      </trkpt>
      <trkpt lat="45.09404" lon="4.6496">
        <ele>635</ele>
        <time>2020-07-15T19:08:36 02:00</time>
      </trkpt>
      <trkpt lat="45.09426" lon="4.64973">
        <ele>633</ele>
        <time>2020-07-15T19:08:41 02:00</time>
      </trkpt>
      <trkpt lat="45.09431" lon="4.65021">
        <ele>629</ele>
        <time>2020-07-15T19:08:46 02:00</time>
      </trkpt>
      <trkpt lat="45.09417" lon="4.65051">
        <ele>628</ele>
        <time>2020-07-15T19:08:51 02:00</time>
      </trkpt>
      <trkpt lat="45.09396" lon="4.65063">
        <ele>628</ele>
        <time>2020-07-15T19:08:56 02:00</time>
      </trkpt>
      <trkpt lat="45.09394" lon="4.65117">
        <ele>624</ele>
        <time>2020-07-15T19:09:01 02:00</time>
      </trkpt>
      <trkpt lat="45.09401" lon="4.65209">
        <ele>619</ele>
        <time>2020-07-15T19:09:06 02:00</time>
      </trkpt>
    </trkseg>
  </trk>
</gpx>